colorkinetics.com alexa rank chart, colorkinetics.com alexa rank daily changes

colorkinetics.com alexa rank chart, colorkinetics.com alexa rank daily changes

colorkinetics.com
Actual rank:
346 224

RANK HISTORY

Date Rank Diff
2017/06/27 346 224 +5 524
2017/06/26 340 700 +13 439
2017/06/25 327 261 +8 796
2017/06/24 318 465 -8 916
2017/06/23 327 381 +8 667
2017/06/22 318 714 -15 569
2017/06/21 334 283 +12 856
2017/06/20 321 427 +7 108
2017/06/19 314 319 +783
2017/06/18 313 536 +2 748
2017/06/17 310 788 -13 855
2017/06/16 324 643 -7 330
2017/06/15 331 973 -11 174
2017/06/14 343 147 +816
2017/06/13 342 331 -10 138
2017/06/12 352 469 +14 660
2017/06/11 337 809 -4 648
2017/06/10 342 457 -3 201
2017/06/09 345 658 -14 206
2017/06/08 359 864 -3 228
2017/06/07 363 092 +1 619
2017/06/06 361 473 +18 265
2017/06/05 343 208 +6 722
2017/06/04 336 486 +3 884
2017/06/03 332 602 -106
2017/06/02 332 708 -3 280
2017/06/01 335 988 +6 661
2017/05/31 329 327 +89
2017/05/30 329 238 +4 988
2017/05/29 324 250 +12 060
2017/05/28 312 190 +1 737
2017/05/27 310 453 -1 549
2017/05/26 312 002 -6 917
2017/05/25 318 919 -14 322
2017/05/24 333 241 -2 852
2017/05/23 336 093 +1 754
2017/05/22 334 339 +11 665
2017/05/21 322 674 -12 801
2017/05/20 335 475 +12 115
2017/05/19 323 360 +5 366
2017/05/18 317 994 -11 701
2017/05/17 329 695 -2 016
2017/05/16 331 711 +11 953
2017/05/15 319 758 +13 364
2017/05/14 306 394 -3 664
2017/05/13 310 058 +8 152
2017/05/12 301 906 +5 479
2017/05/11 296 427 +672
2017/05/10 295 755 -3 840
2017/05/09 299 595 +17 775
2017/05/08 281 820 +5 210
2017/05/07 276 610 +5 024
2017/05/06 271 586 -10 418
2017/05/05 282 004 +2 024
2017/05/04 279 980 -1 159
2017/05/03 281 139 -795
2017/05/02 281 934 +11 245
2017/05/01 270 689 +4 610
2017/04/30 266 079 +2 126
2017/04/29 263 953 +2 452
2017/04/28 261 501

WIDGET FOR YOUR SITE

DOMAINS WITH THE NEAREST RANK

Domain Rank
armaell-library.net 346 219
leshui365.com 346 220
tygodnik-ekonomisty.pl 346 221
happy-capital.com 346 222
tasuke2016.jp 346 223
colorkinetics.com 346 224
badgermapping.com 346 225
supportcentre-rbs.co.uk 346 226
geospatial.jp 346 227
atticabeauty.gr 346 228
moon.ru 346 229

DOMAINS WITH THE NEAREST RANK BY TLD .com

Domain Rank
leisurevans.com 346 212
invitationhomesforrent.com 346 213
snohetta.com 346 214
leshui365.com 346 220
happy-capital.com 346 222
colorkinetics.com 346 224
badgermapping.com 346 225
linak.com 346 231
sistema-orion.com 346 232
fzfu.com 346 233
goodsie.com 346 235